sensor_id;sensor_type;location;lat;lon;timestamp;temperature;humidity
42617;DHT22;28250;52.320;0.360;2023-04-01T00:01:40;8.50;99.90
42617;DHT22;28250;52.320;0.360;2023-04-01T00:04:06;8.50;99.90
42617;DHT22;28250;52.320;0.360;2023-04-01T00:06:32;8.50;99.90
42617;DHT22;28250;52.320;0.360;2023-04-01T00:08:58;8.50;99.90
42617;DHT22;28250;52.320;0.360;2023-04-01T00:11:24;8.50;99.90
42617;DHT22;28250;52.320;0.360;2023-04-01T00:13:50;8.40;99.90
42617;DHT22;28250;52.320;0.360;2023-04-01T00:16:16;8.40;99.90
42617;DHT22;28250;52.320;0.360;2023-04-01T00:18:42;8.40;99.90
42617;DHT22;28250;52.320;0.360;2023-04-01T00:21:08;8.40;99.90
42617;DHT22;28250;52.320;0.360;2023-04-01T00:23:34;8.40;99.90
42617;DHT22;28250;52.320;0.360;2023-04-01T00:26:01;8.30;99.90
42617;DHT22;28250;52.320;0.360;2023-04-01T00:28:28;8.40;99.90
42617;DHT22;28250;52.320;0.360;2023-04-01T00:30:54;8.40;99.90
42617;DHT22;28250;52.320;0.360;2023-04-01T00:33:20;8.30;99.90
42617;DHT22;28250;52.320;0.360;2023-04-01T00:35:46;8.30;99.90
42617;DHT22;28250;52.320;0.360;2023-04-01T00:38:12;8.30;99.90
42617;DHT22;28250;52.320;0.360;2023-04-01T00:40:39;8.30;99.90
42617;DHT22;28250;52.320;0.360;2023-04-01T00:43:14;8.30;99.90
42617;DHT22;28250;52.320;0.360;2023-04-01T00:45:46;8.30;99.90
42617;DHT22;28250;52.320;0.360;2023-04-01T00:48:17;8.20;99.90
42617;DHT22;28250;52.320;0.360;2023-04-01T00:50:50;8.20;99.90
42617;DHT22;28250;52.320;0.360;2023-04-01T00:53:19;8.20;99.90
42617;DHT22;28250;52.320;0.360;2023-04-01T00:55:49;8.20;99.90
42617;DHT22;28250;52.320;0.360;2023-04-01T00:58:20;8.20;99.90
42617;DHT22;28250;52.320;0.360;2023-04-01T01:00:47;8.20;99.90
42617;DHT22;28250;52.320;0.360;2023-04-01T01:03:14;8.20;99.90
42617;DHT22;28250;52.320;0.360;2023-04-01T01:05:46;8.10;99.90
42617;DHT22;28250;52.320;0.360;2023-04-01T01:11:12;8.10;99.90
42617;DHT22;28250;52.320;0.360;2023-04-01T01:16:42;8.20;99.90
42617;DHT22;28250;52.320;0.360;2023-04-01T01:25:31;8.10;99.90
42617;DHT22;28250;52.320;0.360;2023-04-01T01:27:57;8.10;99.90
42617;DHT22;28250;52.320;0.360;2023-04-01T01:30:48;8.10;99.90
42617;DHT22;28250;52.320;0.360;2023-04-01T01:35:55;8.10;99.90
42617;DHT22;28250;52.320;0.360;2023-04-01T01:38:24;8.00;99.90
42617;DHT22;28250;52.320;0.360;2023-04-01T01:41:02;8.00;99.90
42617;DHT22;28250;52.320;0.360;2023-04-01T01:43:31;8.00;99.90
42617;DHT22;28250;52.320;0.360;2023-04-01T01:46:02;8.00;99.90
42617;DHT22;28250;52.320;0.360;2023-04-01T01:48:32;7.90;99.90
42617;DHT22;28250;52.320;0.360;2023-04-01T01:51:06;7.90;99.90
42617;DHT22;28250;52.320;0.360;2023-04-01T01:53:32;7.90;99.90
42617;DHT22;28250;52.320;0.360;2023-04-01T01:55:59;7.90;99.90
42617;DHT22;28250;52.320;0.360;2023-04-01T01:58:32;7.80;99.90
42617;DHT22;28250;52.320;0.360;2023-04-01T02:01:16;7.80;99.90
42617;DHT22;28250;52.320;0.360;2023-04-01T02:04:01;7.80;99.90
42617;DHT22;28250;52.320;0.360;2023-04-01T02:06:29;7.80;99.90
42617;DHT22;28250;52.320;0.360;2023-04-01T02:09:00;7.90;99.90
42617;DHT22;28250;52.320;0.360;2023-04-01T02:14:26;7.80;99.90
42617;DHT22;28250;52.320;0.360;2023-04-01T02:16:56;7.80;99.90
42617;DHT22;28250;52.320;0.360;2023-04-01T02:19:25;7.80;99.90
42617;DHT22;28250;52.320;0.360;2023-04-01T02:21:55;7.80;99.90
42617;DHT22;28250;52.320;0.360;2023-04-01T02:24:24;7.70;99.90
42617;DHT22;28250;52.320;0.360;2023-04-01T02:26:52;7.80;99.90
42617;DHT22;28250;52.320;0.360;2023-04-01T02:29:19;7.70;99.90
42617;DHT22;28250;52.320;0.360;2023-04-01T02:31:46;7.70;99.90
42617;DHT22;28250;52.320;0.360;2023-04-01T02:34:12;7.70;99.90
42617;DHT22;28250;52.320;0.360;2023-04-01T02:36:39;7.70;99.90
42617;DHT22;28250;52.320;0.360;2023-04-01T02:39:05;7.70;99.90
42617;DHT22;28250;52.320;0.360;2023-04-01T02:41:31;7.80;99.90
42617;DHT22;28250;52.320;0.360;2023-04-01T02:43:57;7.80;99.90
42617;DHT22;28250;52.320;0.360;2023-04-01T02:46:24;7.80;99.90
42617;DHT22;28250;52.320;0.360;2023-04-01T02:48:50;7.70;99.90
42617;DHT22;28250;52.320;0.360;2023-04-01T02:51:16;7.70;99.90
42617;DHT22;28250;52.320;0.360;2023-04-01T02:53:42;7.70;99.90
42617;DHT22;28250;52.320;0.360;2023-04-01T02:56:08;7.70;99.90
42617;DHT22;28250;52.320;0.360;2023-04-01T02:58:33;7.70;99.90
42617;DHT22;28250;52.320;0.360;2023-04-01T03:00:59;7.70;99.90
42617;DHT22;28250;52.320;0.360;2023-04-01T03:03:25;7.70;99.90
42617;DHT22;28250;52.320;0.360;2023-04-01T03:05:51;7.60;99.90
42617;DHT22;28250;52.320;0.360;2023-04-01T03:08:20;7.60;99.90
42617;DHT22;28250;52.320;0.360;2023-04-01T03:10:46;7.60;99.90
42617;DHT22;28250;52.320;0.360;2023-04-01T03:13:12;7.60;99.90
42617;DHT22;28250;52.320;0.360;2023-04-01T03:15:38;7.60;99.90
42617;DHT22;28250;52.320;0.360;2023-04-01T03:18:04;7.60;99.90
42617;DHT22;28250;52.320;0.360;2023-04-01T03:20:30;7.60;99.90
42617;DHT22;28250;52.320;0.360;2023-04-01T03:22:56;7.60;99.90
42617;DHT22;28250;52.320;0.360;2023-04-01T03:25:22;7.60;99.90
42617;DHT22;28250;52.320;0.360;2023-04-01T03:27:49;7.60;99.90
42617;DHT22;28250;52.320;0.360;2023-04-01T03:30:15;7.60;99.90
42617;DHT22;28250;52.320;0.360;2023-04-01T03:32:48;7.60;99.90
42617;DHT22;28250;52.320;0.360;2023-04-01T03:35:14;7.60;99.90
42617;DHT22;28250;52.320;0.360;2023-04-01T03:37:41;7.60;99.90
42617;DHT22;28250;52.320;0.360;2023-04-01T03:40:07;7.60;99.90
42617;DHT22;28250;52.320;0.360;2023-04-01T03:42:33;7.60;99.90
42617;DHT22;28250;52.320;0.360;2023-04-01T03:45:00;7.60;99.90
42617;DHT22;28250;52.320;0.360;2023-04-01T03:47:26;7.60;99.90
42617;DHT22;28250;52.320;0.360;2023-04-01T03:49:52;7.50;99.90
42617;DHT22;28250;52.320;0.360;2023-04-01T03:52:18;7.50;99.90
42617;DHT22;28250;52.320;0.360;2023-04-01T03:54:44;7.60;99.90
42617;DHT22;28250;52.320;0.360;2023-04-01T03:57:11;7.60;99.90
42617;DHT22;28250;52.320;0.360;2023-04-01T03:59:37;7.50;99.90
42617;DHT22;28250;52.320;0.360;2023-04-01T04:02:04;7.50;99.90
42617;DHT22;28250;52.320;0.360;2023-04-01T04:04:31;7.50;99.90
42617;DHT22;28250;52.320;0.360;2023-04-01T04:06:57;7.50;99.90
42617;DHT22;28250;52.320;0.360;2023-04-01T04:09:24;7.50;99.90
42617;DHT22;28250;52.320;0.360;2023-04-01T04:11:50;7.50;99.90
42617;DHT22;28250;52.320;0.360;2023-04-01T04:14:16;7.50;99.90
42617;DHT22;28250;52.320;0.360;2023-04-01T04:16:43;7.50;99.90
42617;DHT22;28250;52.320;0.360;2023-04-01T04:19:09;7.50;99.90
42617;DHT22;28250;52.320;0.360;2023-04-01T04:21:35;7.50;99.90
42617;DHT22;28250;52.320;0.360;2023-04-01T04:24:02;7.50;99.90
42617;DHT22;28250;52.320;0.360;2023-04-01T04:26:46;7.50;99.90
42617;DHT22;28250;52.320;0.360;2023-04-01T04:29:12;7.50;99.90
42617;DHT22;28250;52.320;0.360;2023-04-01T04:31:38;7.50;99.90
42617;DHT22;28250;52.320;0.360;2023-04-01T04:34:04;7.50;99.90
42617;DHT22;28250;52.320;0.360;2023-04-01T04:36:34;7.50;99.90
42617;DHT22;28250;52.320;0.360;2023-04-01T04:39:00;7.50;99.90
42617;DHT22;28250;52.320;0.360;2023-04-01T04:41:28;7.50;99.90
42617;DHT22;28250;52.320;0.360;2023-04-01T04:43:55;7.50;99.90
42617;DHT22;28250;52.320;0.360;2023-04-01T04:46:23;7.40;99.90
42617;DHT22;28250;52.320;0.360;2023-04-01T04:48:54;7.40;99.90
42617;DHT22;28250;52.320;0.360;2023-04-01T04:51:21;7.40;99.90
42617;DHT22;28250;52.320;0.360;2023-04-01T04:53:47;7.40;99.90
42617;DHT22;28250;52.320;0.360;2023-04-01T04:56:16;7.40;99.90
42617;DHT22;28250;52.320;0.360;2023-04-01T04:58:49;7.40;99.90
42617;DHT22;28250;52.320;0.360;2023-04-01T05:01:21;7.40;99.90
42617;DHT22;28250;52.320;0.360;2023-04-01T05:03:48;7.40;99.90
42617;DHT22;28250;52.320;0.360;2023-04-01T05:06:14;7.40;99.90
42617;DHT22;28250;52.320;0.360;2023-04-01T05:08:42;7.40;99.90
42617;DHT22;28250;52.320;0.360;2023-04-01T05:11:09;7.40;99.90
42617;DHT22;28250;52.320;0.360;2023-04-01T05:13:42;7.40;99.90
42617;DHT22;28250;52.320;0.360;2023-04-01T05:16:15;7.40;99.90
42617;DHT22;28250;52.320;0.360;2023-04-01T05:18:43;7.40;99.90
42617;DHT22;28250;52.320;0.360;2023-04-01T05:21:09;7.40;99.90
42617;DHT22;28250;52.320;0.360;2023-04-01T05:23:37;7.40;99.90
42617;DHT22;28250;52.320;0.360;2023-04-01T05:26:04;7.40;99.90
42617;DHT22;28250;52.320;0.360;2023-04-01T05:28:31;7.40;99.90
42617;DHT22;28250;52.320;0.360;2023-04-01T05:30:58;7.40;99.90
42617;DHT22;28250;52.320;0.360;2023-04-01T05:33:30;7.40;99.90
42617;DHT22;28250;52.320;0.360;2023-04-01T05:35:56;7.40;99.90
42617;DHT22;28250;52.320;0.360;2023-04-01T05:38:22;7.40;99.90
42617;DHT22;28250;52.320;0.360;2023-04-01T05:40:49;7.40;99.90
42617;DHT22;28250;52.320;0.360;2023-04-01T05:43:15;7.40;99.90
42617;DHT22;28250;52.320;0.360;2023-04-01T05:45:42;7.40;99.90
42617;DHT22;28250;52.320;0.360;2023-04-01T05:48:32;7.40;99.90
42617;DHT22;28250;52.320;0.360;2023-04-01T05:50:58;7.40;99.90
42617;DHT22;28250;52.320;0.360;2023-04-01T05:53:24;7.40;99.90
42617;DHT22;28250;52.320;0.360;2023-04-01T05:55:50;7.40;99.90
42617;DHT22;28250;52.320;0.360;2023-04-01T05:58:16;7.40;99.90
42617;DHT22;28250;52.320;0.360;2023-04-01T06:00:45;7.40;99.90
42617;DHT22;28250;52.320;0.360;2023-04-01T06:03:12;7.30;99.90
42617;DHT22;28250;52.320;0.360;2023-04-01T06:05:42;7.30;99.90
42617;DHT22;28250;52.320;0.360;2023-04-01T06:08:13;7.40;99.90
42617;DHT22;28250;52.320;0.360;2023-04-01T06:16:51;7.40;99.90
42617;DHT22;28250;52.320;0.360;2023-04-01T06:19:35;7.40;99.90
42617;DHT22;28250;52.320;0.360;2023-04-01T06:32:55;7.30;99.90
42617;DHT22;28250;52.320;0.360;2023-04-01T06:40:41;7.40;99.90
42617;DHT22;28250;52.320;0.360;2023-04-01T06:46:02;7.40;99.90
42617;DHT22;28250;52.320;0.360;2023-04-01T06:54:52;7.30;99.90
42617;DHT22;28250;52.320;0.360;2023-04-01T06:57:56;7.30;99.90
42617;DHT22;28250;52.320;0.360;2023-04-01T07:05:45;7.30;99.90
42617;DHT22;28250;52.320;0.360;2023-04-01T07:08:13;7.30;99.90
42617;DHT22;28250;52.320;0.360;2023-04-01T07:10:48;7.30;99.90
42617;DHT22;28250;52.320;0.360;2023-04-01T07:16:17;7.30;99.90
42617;DHT22;28250;52.320;0.360;2023-04-01T07:18:50;7.30;99.90
42617;DHT22;28250;52.320;0.360;2023-04-01T07:21:35;7.30;99.90
42617;DHT22;28250;52.320;0.360;2023-04-01T07:24:21;7.30;99.90
42617;DHT22;28250;52.320;0.360;2023-04-01T07:27:00;7.30;99.90
42617;DHT22;28250;52.320;0.360;2023-04-01T07:29:30;7.30;99.90
42617;DHT22;28250;52.320;0.360;2023-04-01T07:34:50;7.30;99.90
42617;DHT22;28250;52.320;0.360;2023-04-01T07:37:37;7.30;99.90
42617;DHT22;28250;52.320;0.360;2023-04-01T07:40:18;7.30;99.90
42617;DHT22;28250;52.320;0.360;2023-04-01T07:42:57;7.40;99.90
42617;DHT22;28250;52.320;0.360;2023-04-01T07:45:38;7.40;99.90
42617;DHT22;28250;52.320;0.360;2023-04-01T08:04:31;7.30;99.90
42617;DHT22;28250;52.320;0.360;2023-04-01T08:07:20;7.40;99.90
42617;DHT22;28250;52.320;0.360;2023-04-01T08:10:11;7.40;99.90
42617;DHT22;28250;52.320;0.360;2023-04-01T08:21:35;7.40;99.90
42617;DHT22;28250;52.320;0.360;2023-04-01T08:24:22;7.40;99.90
42617;DHT22;28250;52.320;0.360;2023-04-01T08:26:51;7.50;99.90
42617;DHT22;28250;52.320;0.360;2023-04-01T08:29:22;7.50;99.90
42617;DHT22;28250;52.320;0.360;2023-04-01T08:34:39;7.70;99.90
42617;DHT22;28250;52.320;0.360;2023-04-01T08:37:17;7.70;99.90
42617;DHT22;28250;52.320;0.360;2023-04-01T08:39:51;7.90;99.90
42617;DHT22;28250;52.320;0.360;2023-04-01T08:59:23;7.70;99.90
42617;DHT22;28250;52.320;0.360;2023-04-01T09:08:24;7.90;99.90
42617;DHT22;28250;52.320;0.360;2023-04-01T09:10:36;8.10;99.90
42617;DHT22;28250;52.320;0.360;2023-04-01T09:13:34;8.20;99.90
42617;DHT22;28250;52.320;0.360;2023-04-01T09:22:14;8.30;99.90
42617;DHT22;28250;52.320;0.360;2023-04-01T09:27:28;7.90;99.90
42617;DHT22;28250;52.320;0.360;2023-04-01T09:35:48;7.90;99.90
42617;DHT22;28250;52.320;0.360;2023-04-01T09:38:29;7.90;99.90
42617;DHT22;28250;52.320;0.360;2023-04-01T09:40:57;7.80;99.90
42617;DHT22;28250;52.320;0.360;2023-04-01T09:49:08;7.90;99.90
42617;DHT22;28250;52.320;0.360;2023-04-01T09:52:01;7.90;99.90
42617;DHT22;28250;52.320;0.360;2023-04-01T09:54:57;8.00;99.90
42617;DHT22;28250;52.320;0.360;2023-04-01T10:03:18;7.90;99.90
42617;DHT22;28250;52.320;0.360;2023-04-01T10:17:48;8.20;99.90
42617;DHT22;28250;52.320;0.360;2023-04-01T10:20:22;8.10;99.90
42617;DHT22;28250;52.320;0.360;2023-04-01T10:23:00;8.20;99.90
42617;DHT22;28250;52.320;0.360;2023-04-01T10:26:25;8.10;99.90
42617;DHT22;28250;52.320;0.360;2023-04-01T10:35:09;8.00;99.90
42617;DHT22;28250;52.320;0.360;2023-04-01T10:46:10;8.20;99.90
42617;DHT22;28250;52.320;0.360;2023-04-01T10:54:43;8.20;99.90
42617;DHT22;28250;52.320;0.360;2023-04-01T11:13:32;8.50;99.90
42617;DHT22;28250;52.320;0.360;2023-04-01T11:21:42;8.90;99.90
42617;DHT22;28250;52.320;0.360;2023-04-01T11:53:49;9.40;99.90
42617;DHT22;28250;52.320;0.360;2023-04-01T11:56:26;9.40;99.90
42617;DHT22;28250;52.320;0.360;2023-04-01T12:16:28;9.60;99.90
42617;DHT22;28250;52.320;0.360;2023-04-01T12:18:59;9.80;99.90
42617;DHT22;28250;52.320;0.360;2023-04-01T12:32:31;10.60;99.90
42617;DHT22;28250;52.320;0.360;2023-04-01T12:43:20;10.10;99.90
42617;DHT22;28250;52.320;0.360;2023-04-01T12:56:11;10.30;99.90
42617;DHT22;28250;52.320;0.360;2023-04-01T13:03:59;10.50;99.90
42617;DHT22;28250;52.320;0.360;2023-04-01T13:22:09;10.60;99.90
42617;DHT22;28250;52.320;0.360;2023-04-01T13:24:51;10.70;99.90
42617;DHT22;28250;52.320;0.360;2023-04-01T13:41:50;10.60;99.90
42617;DHT22;28250;52.320;0.360;2023-04-01T13:50:14;10.60;99.90
42617;DHT22;28250;52.320;0.360;2023-04-01T14:04:22;10.60;99.90
42617;DHT22;28250;52.320;0.360;2023-04-01T14:15:00;10.10;99.90
42617;DHT22;28250;52.320;0.360;2023-04-01T14:20:38;10.70;99.90
42617;DHT22;28250;52.320;0.360;2023-04-01T14:26:11;10.80;99.90
42617;DHT22;28250;52.320;0.360;2023-04-01T14:34:32;10.10;99.90
42617;DHT22;28250;52.320;0.360;2023-04-01T14:40:19;10.10;99.90
42617;DHT22;28250;52.320;0.360;2023-04-01T14:45:55;9.80;99.90
42617;DHT22;28250;52.320;0.360;2023-04-01T14:48:53;9.70;99.90
42617;DHT22;28250;52.320;0.360;2023-04-01T15:10:31;9.20;99.90
42617;DHT22;28250;52.320;0.360;2023-04-01T15:16:02;9.20;99.90
42617;DHT22;28250;52.320;0.360;2023-04-01T15:26:56;9.20;99.90
42617;DHT22;28250;52.320;0.360;2023-04-01T15:32:03;9.10;99.90
42617;DHT22;28250;52.320;0.360;2023-04-01T15:42:48;9.20;99.90
42617;DHT22;28250;52.320;0.360;2023-04-01T15:48:27;8.90;99.90
42617;DHT22;28250;52.320;0.360;2023-04-01T15:54:06;9.00;99.90
42617;DHT22;28250;52.320;0.360;2023-04-01T15:59:41;9.10;99.90
42617;DHT22;28250;52.320;0.360;2023-04-01T16:02:21;9.00;99.90
42617;DHT22;28250;52.320;0.360;2023-04-01T16:05:49;8.90;99.90
42617;DHT22;28250;52.320;0.360;2023-04-01T16:08:40;8.90;99.90
42617;DHT22;28250;52.320;0.360;2023-04-01T16:10:42;8.80;99.90
42617;DHT22;28250;52.320;0.360;2023-04-01T16:13:42;8.90;99.90
42617;DHT22;28250;52.320;0.360;2023-04-01T16:22:26;8.80;99.90
42617;DHT22;28250;52.320;0.360;2023-04-01T16:31:25;8.90;99.90
42617;DHT22;28250;52.320;0.360;2023-04-01T16:36:21;8.60;99.90
42617;DHT22;28250;52.320;0.360;2023-04-01T16:38:55;8.60;99.90
42617;DHT22;28250;52.320;0.360;2023-04-01T16:41:37;8.70;99.90
42617;DHT22;28250;52.320;0.360;2023-04-01T16:44:20;8.60;99.90
42617;DHT22;28250;52.320;0.360;2023-04-01T16:46:52;8.50;99.90
42617;DHT22;28250;52.320;0.360;2023-04-01T16:49:24;8.60;99.90
42617;DHT22;28250;52.320;0.360;2023-04-01T16:56:44;8.60;99.90
42617;DHT22;28250;52.320;0.360;2023-04-01T16:59:24;8.60;99.90
42617;DHT22;28250;52.320;0.360;2023-04-01T17:02:13;8.60;99.90
42617;DHT22;28250;52.320;0.360;2023-04-01T17:04:44;8.60;99.90
42617;DHT22;28250;52.320;0.360;2023-04-01T17:18:08;8.50;99.90
42617;DHT22;28250;52.320;0.360;2023-04-01T17:20:43;8.40;99.90
42617;DHT22;28250;52.320;0.360;2023-04-01T17:32:44;8.10;99.90
42617;DHT22;28250;52.320;0.360;2023-04-01T17:57:28;8.00;99.90
42617;DHT22;28250;52.320;0.360;2023-04-01T17:59:57;8.00;99.90
42617;DHT22;28250;52.320;0.360;2023-04-01T18:02:48;8.00;99.90
42617;DHT22;28250;52.320;0.360;2023-04-01T18:05:26;8.00;99.90
42617;DHT22;28250;52.320;0.360;2023-04-01T18:11:06;8.00;99.90
42617;DHT22;28250;52.320;0.360;2023-04-01T18:18:45;8.00;99.90
42617;DHT22;28250;52.320;0.360;2023-04-01T18:24:10;7.90;99.90
42617;DHT22;28250;52.320;0.360;2023-04-01T18:26:39;7.90;99.90
42617;DHT22;28250;52.320;0.360;2023-04-01T18:31:51;7.90;99.90
42617;DHT22;28250;52.320;0.360;2023-04-01T18:37:19;7.90;99.90
42617;DHT22;28250;52.320;0.360;2023-04-01T18:39:54;7.80;99.90
42617;DHT22;28250;52.320;0.360;2023-04-01T18:45:26;7.80;99.90
42617;DHT22;28250;52.320;0.360;2023-04-01T18:48:03;7.70;99.90
42617;DHT22;28250;52.320;0.360;2023-04-01T18:53:19;7.70;99.90
42617;DHT22;28250;52.320;0.360;2023-04-01T18:55:53;7.70;99.90
42617;DHT22;28250;52.320;0.360;2023-04-01T18:58:28;7.60;99.90
42617;DHT22;28250;52.320;0.360;2023-04-01T19:06:51;7.60;99.90
42617;DHT22;28250;52.320;0.360;2023-04-01T19:09:24;7.60;99.90
42617;DHT22;28250;52.320;0.360;2023-04-01T19:12:00;7.50;99.90
42617;DHT22;28250;52.320;0.360;2023-04-01T19:17:38;7.50;99.90
42617;DHT22;28250;52.320;0.360;2023-04-01T19:26:10;7.50;99.90
42617;DHT22;28250;52.320;0.360;2023-04-01T19:28:59;7.50;99.90
42617;DHT22;28250;52.320;0.360;2023-04-01T19:34:27;7.40;99.90
42617;DHT22;28250;52.320;0.360;2023-04-01T19:37:00;7.40;99.90
42617;DHT22;28250;52.320;0.360;2023-04-01T19:42:37;7.40;99.90
42617;DHT22;28250;52.320;0.360;2023-04-01T19:47:54;7.40;99.90
42617;DHT22;28250;52.320;0.360;2023-04-01T19:53:21;7.30;99.90
42617;DHT22;28250;52.320;0.360;2023-04-01T19:56:18;7.20;99.90
42617;DHT22;28250;52.320;0.360;2023-04-01T20:01:26;7.10;99.90
42617;DHT22;28250;52.320;0.360;2023-04-01T20:03:55;7.10;99.90
42617;DHT22;28250;52.320;0.360;2023-04-01T20:06:28;7.00;99.90
42617;DHT22;28250;52.320;0.360;2023-04-01T20:12:35;7.10;99.90
42617;DHT22;28250;52.320;0.360;2023-04-01T20:15:00;7.10;99.90
42617;DHT22;28250;52.320;0.360;2023-04-01T20:17:33;7.10;99.90
42617;DHT22;28250;52.320;0.360;2023-04-01T20:25:13;7.10;99.90
42617;DHT22;28250;52.320;0.360;2023-04-01T20:27:53;7.10;99.90
42617;DHT22;28250;52.320;0.360;2023-04-01T20:45:32;7.20;99.90
42617;DHT22;28250;52.320;0.360;2023-04-01T20:48:02;7.20;99.90
42617;DHT22;28250;52.320;0.360;2023-04-01T20:50:38;7.20;99.90
42617;DHT22;28250;52.320;0.360;2023-04-01T20:53:12;7.20;99.90
42617;DHT22;28250;52.320;0.360;2023-04-01T21:01:13;7.10;99.90
42617;DHT22;28250;52.320;0.360;2023-04-01T21:12:17;7.10;99.90
42617;DHT22;28250;52.320;0.360;2023-04-01T21:15:02;7.10;99.90
42617;DHT22;28250;52.320;0.360;2023-04-01T21:25:50;7.10;99.90
42617;DHT22;28250;52.320;0.360;2023-04-01T21:28:34;7.00;99.90
42617;DHT22;28250;52.320;0.360;2023-04-01T21:33:41;7.00;99.90
42617;DHT22;28250;52.320;0.360;2023-04-01T21:36:32;7.00;99.90
42617;DHT22;28250;52.320;0.360;2023-04-01T21:41:39;7.00;99.90
42617;DHT22;28250;52.320;0.360;2023-04-01T22:00:42;7.00;99.90
42617;DHT22;28250;52.320;0.360;2023-04-01T22:03:49;7.00;99.90
42617;DHT22;28250;52.320;0.360;2023-04-01T22:06:45;6.90;99.90
42617;DHT22;28250;52.320;0.360;2023-04-01T22:12:12;6.90;99.90
42617;DHT22;28250;52.320;0.360;2023-04-01T22:14:47;6.90;99.90
42617;DHT22;28250;52.320;0.360;2023-04-01T22:17:33;6.80;99.90
42617;DHT22;28250;52.320;0.360;2023-04-01T22:28:14;6.70;99.90
42617;DHT22;28250;52.320;0.360;2023-04-01T22:30:49;6.70;99.90
42617;DHT22;28250;52.320;0.360;2023-04-01T22:33:29;6.70;99.90
42617;DHT22;28250;52.320;0.360;2023-04-01T22:55:44;6.60;99.90
42617;DHT22;28250;52.320;0.360;2023-04-01T22:58:13;6.70;99.90
42617;DHT22;28250;52.320;0.360;2023-04-01T23:01:14;6.70;99.90
42617;DHT22;28250;52.320;0.360;2023-04-01T23:03:44;6.60;99.90
42617;DHT22;28250;52.320;0.360;2023-04-01T23:06:15;6.70;99.90
42617;DHT22;28250;52.320;0.360;2023-04-01T23:11:26;6.70;99.90
42617;DHT22;28250;52.320;0.360;2023-04-01T23:16:45;6.60;99.90
42617;DHT22;28250;52.320;0.360;2023-04-01T23:19:29;6.60;99.90
42617;DHT22;28250;52.320;0.360;2023-04-01T23:25:15;6.60;99.90
42617;DHT22;28250;52.320;0.360;2023-04-01T23:38:17;6.60;99.90
42617;DHT22;28250;52.320;0.360;2023-04-01T23:40:44;6.60;99.90
42617;DHT22;28250;52.320;0.360;2023-04-01T23:43:13;6.60;99.90
42617;DHT22;28250;52.320;0.360;2023-04-01T23:45:42;6.60;99.90
42617;DHT22;28250;52.320;0.360;2023-04-01T23:48:11;6.60;99.90
42617;DHT22;28250;52.320;0.360;2023-04-01T23:50:39;6.60;99.90
42617;DHT22;28250;52.320;0.360;2023-04-01T23:53:28;6.60;99.90
42617;DHT22;28250;52.320;0.360;2023-04-01T23:55:52;6.60;99.90
42617;DHT22;28250;52.320;0.360;2023-04-01T23:58:24;6.60;99.90
